Time;durP1;ratioP1;P1;durP2;ratioP2;P2;SDS_P1;SDS_P2;PMS_P1;PMS_P2;Temp;Humidity;BMP_temperature;BMP_pressure;BME280_temperature;BME280_humidity;BME280_pressure;Samples;Min_cycle;Max_cycle;Signal;HPM_P1;HPM_P2
2022/04/14 00:01:22;;;;;;;2.05;1.02;;;13.80;99.90;;;;;;4936745;29;20054;-74
2022/04/14 00:03:48;;;;;;;4.32;1.50;;;13.60;99.90;;;;;;4954708;29;20025;-74
2022/04/14 00:06:14;;;;;;;3.70;1.50;;;13.40;99.90;;;;;;4954624;29;20027;-74
2022/04/14 00:08:39;;;;;;;5.45;2.00;;;13.30;99.90;;;;;;4953829;29;20023;-74
2022/04/14 00:11:05;;;;;;;2.72;1.00;;;13.40;99.90;;;;;;4953758;29;20030;-74
2022/04/14 00:13:31;;;;;;;7.00;2.28;;;13.50;99.90;;;;;;4953667;29;20023;-74
2022/04/14 00:15:57;;;;;;;4.05;1.67;;;13.60;99.90;;;;;;4936656;29;20118;-74
2022/04/14 00:18:22;;;;;;;3.80;1.50;;;13.60;99.90;;;;;;4953995;29;20658;-74
2022/04/14 00:20:48;;;;;;;4.97;1.90;;;13.70;99.90;;;;;;4953835;29;20117;-74
2022/04/14 00:23:14;;;;;;;6.18;1.58;;;13.60;99.90;;;;;;4953637;29;20024;-74
2022/04/14 00:25:39;;;;;;;1.83;1.27;;;13.60;99.90;;;;;;4953181;29;20112;-74
2022/04/14 00:28:05;;;;;;;3.17;1.70;;;13.60;99.90;;;;;;4953432;29;20028;-74
2022/04/14 00:30:31;;;;;;;8.48;1.95;;;13.60;99.90;;;;;;4953279;28;20188;-74
2022/04/14 00:32:57;;;;;;;2.55;1.25;;;13.60;99.90;;;;;;4953334;29;20442;-74
2022/04/14 00:35:22;;;;;;;3.05;1.45;;;13.60;99.90;;;;;;4953265;29;20035;-74
2022/04/14 00:37:48;;;;;;;5.45;1.40;;;13.60;99.90;;;;;;4953267;29;20027;-74
2022/04/14 00:40:14;;;;;;;1.27;1.00;;;13.50;99.90;;;;;;4952786;29;20062;-74
2022/04/14 00:42:40;;;;;;;1.67;1.38;;;13.40;99.90;;;;;;4953095;29;20023;-74
2022/04/14 00:45:06;;;;;;;4.00;1.35;;;13.40;99.90;;;;;;4953119;29;20039;-74
2022/04/14 00:47:34;;;;;;;5.63;1.85;;;13.50;99.90;;;;;;4953072;29;20476;-74
2022/04/14 00:50:01;;;;;;;5.65;1.60;;;13.50;99.90;;;;;;4953034;29;20043;-74
2022/04/14 00:52:27;;;;;;;6.43;2.15;;;13.50;99.90;;;;;;4953010;29;20016;-74
2022/04/14 00:54:52;;;;;;;9.48;1.77;;;13.40;99.90;;;;;;4951836;28;20042;-74
2022/04/14 00:57:18;;;;;;;5.25;1.70;;;13.40;99.90;;;;;;4953035;29;20038;-74
2022/04/14 00:59:44;;;;;;;6.50;1.40;;;13.30;99.90;;;;;;4952780;29;20515;-74
2022/04/14 01:02:10;;;;;;;7.53;1.40;;;13.30;99.90;;;;;;4952818;29;20469;-74
2022/04/14 01:04:37;;;;;;;3.67;1.40;;;13.30;99.90;;;;;;4935470;29;20033;-74
2022/04/14 01:07:06;;;;;;;1.73;1.25;;;13.20;99.90;;;;;;4952800;29;20571;-74
2022/04/14 01:09:34;;;;;;;2.58;1.13;;;13.20;99.90;;;;;;4952955;29;20544;-74
2022/04/14 01:12:00;;;;;;;5.00;1.40;;;13.20;99.90;;;;;;4953454;29;20046;-74
2022/04/14 01:14:28;;;;;;;4.47;1.30;;;13.30;99.90;;;;;;4953022;29;20500;-74
2022/04/14 01:16:59;;;;;;;3.70;1.23;;;13.30;99.90;;;;;;4935526;29;20453;-74
2022/04/14 01:19:25;;;;;;;3.45;1.45;;;13.20;99.90;;;;;;4953241;29;20027;-74
2022/04/14 01:22:12;;;;;;;3.05;1.42;;;13.20;99.90;;;;;;4953266;29;20027;-74
2022/04/14 01:24:38;;;;;;;5.38;2.78;;;13.30;99.90;;;;;;4953087;29;20439;-74
2022/04/14 01:27:05;;;;;;;8.98;2.15;;;14.70;99.90;;;;;;4936284;29;20420;-74
2022/04/14 01:29:31;;;;;;;4.88;2.20;;;13.30;99.90;;;;;;4953385;28;20035;-74
2022/04/14 01:31:58;;;;;;;5.20;1.60;;;13.30;99.90;;;;;;4953605;29;20039;-74
2022/04/14 01:34:24;;;;;;;6.05;1.45;;;13.30;99.90;;;;;;4953108;29;20102;-74
2022/04/14 01:36:50;;;;;;;7.78;1.73;;;13.30;99.90;;;;;;4953065;29;20472;-74
2022/04/14 01:39:16;;;;;;;2.67;1.40;;;13.30;99.90;;;;;;4952637;29;20089;-74
2022/04/14 01:41:43;;;;;;;9.07;1.83;;;13.40;99.90;;;;;;4953148;29;20400;-74
2022/04/14 01:44:10;;;;;;;3.08;1.63;;;13.40;99.90;;;;;;4952757;29;20027;-74
2022/04/14 01:46:37;;;;;;;3.42;1.45;;;13.50;99.90;;;;;;4952910;29;20050;-74
2022/04/14 01:49:03;;;;;;;4.45;1.58;;;13.60;99.90;;;;;;4953249;29;20046;-74
2022/04/14 01:51:30;;;;;;;2.33;1.38;;;13.60;99.90;;;;;;4952804;29;20039;-74
2022/04/14 01:53:56;;;;;;;5.15;1.48;;;13.70;99.90;;;;;;4954329;29;20302;-75
2022/04/14 01:56:22;;;;;;;3.25;1.33;;;13.80;99.90;;;;;;4959798;29;20327;-75
2022/04/14 01:58:48;;;;;;;6.97;1.83;;;13.80;99.90;;;;;;4958217;29;20035;-75
2022/04/14 02:01:15;;;;;;;3.63;1.90;;;13.80;99.90;;;;;;4953075;29;20027;-74
2022/04/14 02:03:41;;;;;;;2.63;1.50;;;13.90;99.90;;;;;;4935724;29;20380;-74
2022/04/14 02:06:07;;;;;;;2.70;1.42;;;13.90;99.90;;;;;;4952886;28;20102;-74
2022/04/14 02:08:32;;;;;;;1.83;1.20;;;13.90;99.90;;;;;;4952672;29;20027;-73
2022/04/14 02:10:58;;;;;;;6.78;3.17;;;13.90;99.90;;;;;;4952060;29;20023;-74
2022/04/14 02:13:24;;;;;;;5.07;1.50;;;13.90;99.90;;;;;;4952416;29;20555;-75
2022/04/14 02:15:49;;;;;;;4.18;1.65;;;13.90;99.90;;;;;;4952168;29;20519;-74
2022/04/14 02:18:15;;;;;;;6.68;2.03;;;13.90;99.90;;;;;;4952015;29;20071;-74
2022/04/14 02:20:41;;;;;;;8.13;1.60;;;13.90;99.90;;;;;;4952579;29;20027;-74
2022/04/14 02:23:06;;;;;;;5.78;1.40;;;13.90;99.90;;;;;;4952366;29;20400;-74
2022/04/14 02:25:32;;;;;;;3.67;1.52;;;13.90;99.90;;;;;;4952012;29;20066;-74
2022/04/14 02:27:58;;;;;;;10.23;2.10;;;13.80;99.90;;;;;;4952208;29;20364;-74
2022/04/14 02:30:24;;;;;;;6.53;1.90;;;13.80;99.90;;;;;;4952886;28;20461;-74
2022/04/14 02:32:49;;;;;;;6.45;1.88;;;13.80;99.90;;;;;;4952754;29;20067;-74
2022/04/14 02:35:18;;;;;;;3.35;1.50;;;13.70;99.90;;;;;;4952895;29;20130;-73
2022/04/14 02:37:44;;;;;;;4.32;2.05;;;13.60;99.90;;;;;;4952967;29;20110;-74
2022/04/14 02:40:10;;;;;;;5.90;2.30;;;13.30;99.90;;;;;;4951673;29;20167;-74
2022/04/14 02:42:36;;;;;;;4.53;2.00;;;13.60;99.90;;;;;;4936616;29;20024;-74
2022/04/14 02:45:02;;;;;;;3.63;1.98;;;13.50;99.90;;;;;;4952560;29;20358;-74
2022/04/14 02:47:28;;;;;;;2.47;2.20;;;13.50;99.90;;;;;;4952385;29;20087;-74
2022/04/14 02:49:53;;;;;;;9.70;1.83;;;13.50;99.90;;;;;;4952549;29;20421;-74
2022/04/14 02:52:19;;;;;;;5.47;1.58;;;13.40;99.90;;;;;;4951946;29;20034;-74
2022/04/14 02:54:45;;;;;;;5.53;1.80;;;13.40;99.90;;;;;;4952362;29;20117;-74
2022/04/14 02:57:11;;;;;;;7.60;1.90;;;13.40;99.90;;;;;;4951996;29;20601;-74
2022/04/14 02:59:37;;;;;;;10.05;1.92;;;13.30;99.90;;;;;;4952236;29;20030;-74
2022/04/14 03:02:03;;;;;;;4.68;1.50;;;13.30;99.90;;;;;;4951691;29;20441;-74
2022/04/14 03:04:30;;;;;;;8.82;1.80;;;13.30;99.90;;;;;;4952412;29;20107;-74
2022/04/14 03:06:56;;;;;;;5.90;2.75;;;13.30;99.90;;;;;;4952043;29;20030;-74
2022/04/14 03:09:22;;;;;;;7.00;1.85;;;13.20;99.90;;;;;;4952184;29;20090;-74
2022/04/14 03:11:48;;;;;;;9.75;2.00;;;13.20;99.90;;;;;;4951710;29;20496;-74
2022/04/14 03:14:14;;;;;;;8.43;2.05;;;13.10;99.90;;;;;;4951378;29;20039;-74
2022/04/14 03:16:43;;;;;;;3.33;1.92;;;12.90;99.90;;;;;;4951652;29;20427;-74
2022/04/14 03:19:08;;;;;;;5.63;2.70;;;12.90;99.90;;;;;;4954883;28;20260;-74
2022/04/14 03:21:34;;;;;;;2.38;2.15;;;12.70;99.90;;;;;;4955264;29;20342;-73
2022/04/14 03:24:00;;;;;;;4.07;1.90;;;12.60;99.90;;;;;;4955327;29;20485;-74
2022/04/14 03:26:26;;;;;;;9.90;1.70;;;12.50;99.90;;;;;;4955249;29;20037;-74
2022/04/14 03:28:51;;;;;;;3.47;1.95;;;12.40;99.90;;;;;;4937611;28;20098;-74
2022/04/14 03:31:17;;;;;;;5.03;1.50;;;12.40;99.90;;;;;;4955378;29;20035;-74
2022/04/14 03:33:43;;;;;;;4.93;1.48;;;12.30;99.90;;;;;;4955261;29;20053;-74
2022/04/14 03:36:09;;;;;;;7.57;1.85;;;12.20;99.90;;;;;;4955050;29;20094;-74
2022/04/14 03:38:34;;;;;;;5.15;1.50;;;12.00;99.90;;;;;;4955176;29;20225;-74
2022/04/14 03:41:02;;;;;;;5.47;2.22;;;11.70;99.90;;;;;;4954819;29;20106;-74
2022/04/14 03:43:28;;;;;;;3.42;1.90;;;11.70;99.90;;;;;;4955292;29;20023;-74
2022/04/14 03:45:57;;;;;;;8.50;1.73;;;11.50;99.90;;;;;;4954523;29;20035;-74
2022/04/14 03:48:22;;;;;;;7.20;2.03;;;11.30;99.90;;;;;;4937436;29;20563;-74
2022/04/14 03:50:51;;;;;;;4.88;1.77;;;11.20;99.90;;;;;;4954808;29;20509;-74
2022/04/14 03:53:18;;;;;;;2.55;1.60;;;11.10;99.90;;;;;;4954342;29;20102;-74
2022/04/14 03:55:46;;;;;;;5.15;1.83;;;10.90;99.90;;;;;;4953984;29;20047;-74
2022/04/14 03:58:12;;;;;;;4.75;1.55;;;10.80;99.90;;;;;;4954458;29;20107;-74
2022/04/14 04:00:38;;;;;;;7.82;2.03;;;10.60;99.90;;;;;;4954511;29;20532;-74
2022/04/14 04:03:04;;;;;;;8.40;1.75;;;10.60;99.90;;;;;;4954885;29;20111;-74
2022/04/14 04:05:33;;;;;;;4.82;1.92;;;10.50;99.90;;;;;;4954168;29;20031;-74
2022/04/14 04:07:58;;;;;;;2.33;1.33;;;10.30;99.90;;;;;;4955259;29;20085;-74
2022/04/14 04:10:24;;;;;;;4.30;1.65;;;10.20;99.90;;;;;;4954202;29;20031;-74
2022/04/14 04:12:50;;;;;;;4.55;1.60;;;10.00;99.90;;;;;;4953904;29;20027;-74
2022/04/14 04:15:16;;;;;;;3.83;1.50;;;9.90;99.90;;;;;;4937171;29;20063;-74
2022/04/14 04:17:44;;;;;;;7.80;1.77;;;9.80;99.90;;;;;;4954687;29;20023;-74
2022/04/14 04:20:11;;;;;;;6.70;1.90;;;9.70;99.90;;;;;;4954311;29;20078;-74
2022/04/14 04:22:37;;;;;;;7.20;1.63;;;9.60;99.90;;;;;;4954093;29;20497;-74
2022/04/14 04:25:03;;;;;;;5.25;2.03;;;9.50;99.90;;;;;;4953937;29;20683;-74
2022/04/14 04:27:29;;;;;;;6.53;1.83;;;9.40;99.90;;;;;;4953873;29;20030;-74
2022/04/14 04:29:55;;;;;;;3.35;1.70;;;9.30;99.90;;;;;;4952885;28;20056;-74
2022/04/14 04:32:21;;;;;;;5.43;2.05;;;9.30;99.90;;;;;;4953892;29;20030;-74
2022/04/14 04:34:49;;;;;;;4.18;1.95;;;9.20;99.90;;;;;;4953990;29;20054;-74
2022/04/14 04:37:15;;;;;;;8.23;2.20;;;10.40;99.90;;;;;;4953818;29;20038;-74
2022/04/14 04:39:41;;;;;;;4.45;1.83;;;9.10;99.90;;;;;;4953750;29;20023;-74
2022/04/14 04:42:08;;;;;;;6.65;1.67;;;9.10;99.90;;;;;;4953943;29;20027;-75
2022/04/14 04:44:33;;;;;;;6.45;1.50;;;9.10;99.90;;;;;;4954307;29;20098;-74
2022/04/14 04:46:59;;;;;;;4.57;1.90;;;9.00;99.90;;;;;;4954060;29;20456;-74
2022/04/14 04:49:25;;;;;;;4.70;1.70;;;9.00;99.90;;;;;;4954898;29;20071;-75
2022/04/14 04:51:50;;;;;;;7.82;1.45;;;8.90;99.90;;;;;;4954202;29;20499;-74
2022/04/14 04:54:17;;;;;;;5.28;1.70;;;8.80;99.90;;;;;;4953737;29;20028;-74
2022/04/14 04:56:43;;;;;;;4.45;1.67;;;8.80;99.90;;;;;;4953218;29;20039;-74
2022/04/14 04:59:09;;;;;;;4.30;1.77;;;8.90;99.90;;;;;;4953439;29;20058;-74
2022/04/14 05:01:35;;;;;;;2.55;1.75;;;9.00;99.90;;;;;;4953748;29;20059;-74
2022/04/14 05:04:00;;;;;;;1.60;1.50;;;9.00;99.90;;;;;;4953686;29;20023;-74
2022/04/14 05:06:26;;;;;;;3.78;1.65;;;9.00;99.90;;;;;;4953802;29;20027;-74
2022/04/14 05:08:52;;;;;;;2.72;1.67;;;9.10;99.90;;;;;;4936197;29;20036;-74
2022/04/14 05:11:18;;;;;;;4.57;1.83;;;9.20;99.90;;;;;;4953265;29;20110;-75
2022/04/14 05:13:43;;;;;;;2.17;1.77;;;9.10;99.90;;;;;;4954254;29;20493;-74
2022/04/14 05:16:10;;;;;;;5.18;2.20;;;9.10;99.90;;;;;;4936513;29;20501;-74
2022/04/14 05:18:36;;;;;;;2.67;1.80;;;9.10;99.90;;;;;;4953774;29;20034;-74
2022/04/14 05:21:02;;;;;;;4.32;2.38;;;9.10;99.90;;;;;;4936659;29;20035;-74
2022/04/14 05:23:28;;;;;;;4.40;1.90;;;9.10;99.90;;;;;;4954507;29;20113;-74
2022/04/14 05:25:57;;;;;;;8.43;2.28;;;9.10;99.90;;;;;;4954188;29;20449;-74
2022/04/14 05:28:22;;;;;;;8.23;1.80;;;9.20;99.90;;;;;;4953366;29;20042;-74
2022/04/14 05:30:48;;;;;;;7.03;1.92;;;9.30;99.90;;;;;;4952926;28;20543;-75
2022/04/14 05:33:14;;;;;;;9.50;2.20;;;9.30;99.90;;;;;;4953168;29;20464;-74
2022/04/14 05:35:43;;;;;;;2.63;1.65;;;9.20;99.90;;;;;;4952731;29;20396;-74
2022/04/14 05:38:08;;;;;;;2.97;1.83;;;9.30;99.90;;;;;;4952368;29;20444;-74
2022/04/14 05:40:35;;;;;;;3.05;1.92;;;9.40;99.90;;;;;;4952215;28;20023;-74
2022/04/14 05:43:00;;;;;;;1.63;1.52;;;9.60;99.90;;;;;;4953353;29;20019;-74
2022/04/14 05:45:26;;;;;;;4.38;2.20;;;9.70;99.90;;;;;;4952751;29;20039;-74
2022/04/14 05:47:52;;;;;;;3.20;1.98;;;9.90;99.90;;;;;;4953179;29;20033;-74
2022/04/14 05:50:19;;;;;;;4.53;1.60;;;10.10;99.90;;;;;;4952791;29;20043;-74
2022/04/14 05:52:44;;;;;;;2.92;2.00;;;10.30;99.90;;;;;;4952835;29;20539;-74
2022/04/14 05:55:10;;;;;;;4.20;1.80;;;10.60;99.90;;;;;;4952530;29;20291;-74
2022/04/14 05:57:36;;;;;;;4.05;1.65;;;11.00;99.90;;;;;;4952864;29;20024;-74
2022/04/14 06:00:05;;;;;;;4.95;2.10;;;11.10;99.90;;;;;;4952539;29;20019;-74
2022/04/14 06:02:30;;;;;;;2.85;1.30;;;11.30;99.90;;;;;;4952987;29;20019;-74
2022/04/14 06:04:56;;;;;;;1.63;1.40;;;11.50;99.90;;;;;;4952787;29;20472;-74
2022/04/14 06:07:22;;;;;;;8.80;3.03;;;11.50;99.90;;;;;;4953751;29;20535;-74
2022/04/14 06:09:47;;;;;;;7.25;2.40;;;11.60;99.90;;;;;;4952567;29;20031;-74
2022/04/14 06:12:13;;;;;;;8.63;2.47;;;11.80;99.90;;;;;;4953443;29;20070;-73
2022/04/14 06:14:39;;;;;;;5.60;2.40;;;12.00;99.90;;;;;;4952924;29;20404;-74
2022/04/14 06:17:05;;;;;;;14.23;3.75;;;12.30;99.90;;;;;;4952072;29;20366;-74
2022/04/14 06:19:30;;;;;;;7.00;1.85;;;12.70;99.90;;;;;;4952457;29;20102;-74
2022/04/14 06:21:56;;;;;;;4.55;2.05;;;12.90;99.90;;;;;;4935065;29;20023;-74
2022/04/14 06:24:21;;;;;;;6.75;2.55;;;13.00;99.90;;;;;;4952156;29;20078;-75
2022/04/14 06:26:48;;;;;;;7.53;2.30;;;13.20;99.90;;;;;;4952303;29;20318;-74
2022/04/14 06:29:14;;;;;;;5.57;2.03;;;13.30;99.90;;;;;;4952145;29;20035;-74
2022/04/14 06:31:40;;;;;;;8.07;2.50;;;13.30;99.90;;;;;;4952302;29;20034;-74
2022/04/14 06:34:06;;;;;;;6.10;2.25;;;13.30;99.90;;;;;;4952073;29;20039;-74
2022/04/14 06:36:32;;;;;;;4.88;2.38;;;13.30;99.90;;;;;;4952796;29;20031;-74
2022/04/14 06:38:57;;;;;;;6.53;3.28;;;13.50;99.90;;;;;;4952006;29;20058;-74
2022/04/14 06:41:25;;;;;;;4.53;2.00;;;13.60;99.90;;;;;;4952048;29;20066;-75
2022/04/14 06:43:50;;;;;;;5.53;2.20;;;14.20;99.90;;;;;;4952161;29;20479;-74
2022/04/14 06:46:16;;;;;;;9.38;1.90;;;14.50;99.90;;;;;;4953272;29;20098;-74
2022/04/14 06:48:43;;;;;;;5.22;2.10;;;14.80;99.90;;;;;;4952052;29;20028;-75
2022/04/14 06:51:09;;;;;;;5.10;2.17;;;15.30;99.90;;;;;;4951156;29;20055;-75
2022/04/14 06:53:34;;;;;;;8.32;3.15;;;15.20;99.90;;;;;;4953012;28;20110;-74
2022/04/14 06:56:00;;;;;;;10.60;2.00;;;15.20;99.90;;;;;;4955059;29;20572;-74
2022/04/14 06:58:26;;;;;;;3.78;2.10;;;14.90;99.90;;;;;;4955115;29;20027;-74
2022/04/14 07:00:51;;;;;;;3.92;2.40;;;15.10;99.90;;;;;;4955267;29;20034;-74
2022/04/14 07:03:19;;;;;;;3.53;2.20;;;14.70;99.90;;;;;;4955140;29;20028;-74
2022/04/14 07:05:46;;;;;;;2.60;1.95;;;14.90;99.90;;;;;;4955197;29;20038;-74
2022/04/14 07:08:11;;;;;;;5.20;2.22;;;14.80;99.90;;;;;;4955111;29;20086;-74
2022/04/14 07:10:37;;;;;;;3.25;1.95;;;14.90;99.90;;;;;;4954940;29;20031;-76
2022/04/14 07:13:03;;;;;;;5.85;2.72;;;15.00;99.90;;;;;;4955104;29;20287;-74
2022/04/14 07:15:29;;;;;;;7.40;2.45;;;14.90;99.90;;;;;;4954848;29;20035;-74
2022/04/14 07:17:55;;;;;;;8.75;2.13;;;14.80;99.90;;;;;;4955447;29;20086;-74
2022/04/14 07:20:21;;;;;;;4.72;2.15;;;14.80;99.90;;;;;;4956062;29;20388;-74
2022/04/14 07:22:49;;;;;;;4.65;2.33;;;15.00;99.90;;;;;;4955794;29;20075;-74
2022/04/14 07:25:15;;;;;;;6.07;2.10;;;14.90;99.90;;;;;;4954804;29;20034;-74
2022/04/14 07:27:42;;;;;;;6.72;2.67;;;15.00;99.90;;;;;;4954693;29;20058;-74
2022/04/14 07:30:11;;;;;;;7.55;2.90;;;15.20;99.90;;;;;;4954329;28;20492;-74
2022/04/14 07:32:45;;;;;;;8.77;2.15;;;15.40;99.90;;;;;;4954822;29;20152;-74
2022/04/14 07:35:12;;;;;;;5.75;2.42;;;15.50;99.90;;;;;;4954642;29;20051;-74
2022/04/14 07:37:38;;;;;;;6.68;2.88;;;15.90;99.90;;;;;;4954169;29;20035;-75
2022/04/14 07:40:06;;;;;;;6.30;2.17;;;16.20;99.90;;;;;;4936425;29;20492;-74
2022/04/14 07:42:39;;;;;;;6.03;2.53;;;16.40;99.90;;;;;;4953824;29;20031;-75
2022/04/14 07:45:07;;;;;;;4.05;2.10;;;16.70;99.90;;;;;;4954148;29;20023;-74
2022/04/14 07:47:33;;;;;;;4.00;1.92;;;16.50;99.90;;;;;;4937092;29;20476;-74
2022/04/14 07:49:59;;;;;;;7.15;2.50;;;16.10;99.90;;;;;;4954997;29;20051;-74
2022/04/14 07:52:25;;;;;;;13.38;3.00;;;15.90;99.90;;;;;;4954579;29;20028;-74
2022/04/14 07:54:50;;;;;;;6.47;2.47;;;15.90;99.90;;;;;;4954519;29;20043;-74
2022/04/14 07:57:17;;;;;;;8.13;2.92;;;16.10;99.90;;;;;;4954526;29;20086;-76
2022/04/14 07:59:43;;;;;;;4.30;2.17;;;16.20;99.90;;;;;;4954499;29;20039;-74
2022/04/14 08:02:09;;;;;;;4.13;1.90;;;16.30;99.90;;;;;;4954642;29;20034;-74
2022/04/14 08:04:34;;;;;;;7.43;2.38;;;16.40;99.90;;;;;;4954657;28;20047;-75
2022/04/14 08:07:00;;;;;;;6.57;2.40;;;16.70;99.90;;;;;;4953447;29;20030;-74
2022/04/14 08:09:26;;;;;;;5.43;2.55;;;16.80;99.90;;;;;;4953582;29;20074;-75
2022/04/14 08:11:52;;;;;;;3.67;2.25;;;16.80;99.90;;;;;;4953738;29;20034;-74
2022/04/14 08:14:19;;;;;;;4.97;2.40;;;16.70;99.90;;;;;;4954492;29;20365;-74
2022/04/14 08:16:45;;;;;;;3.15;2.55;;;16.80;99.90;;;;;;4954490;29;20038;-74
2022/04/14 08:19:11;;;;;;;9.18;2.50;;;16.90;99.90;;;;;;4954043;29;20023;-74
2022/04/14 08:21:36;;;;;;;7.28;2.65;;;16.60;99.90;;;;;;4954583;29;20073;-74
2022/04/14 08:24:02;;;;;;;10.02;2.17;;;16.60;99.90;;;;;;4954290;29;20462;-74
2022/04/14 08:26:28;;;;;;;6.63;2.55;;;16.80;99.90;;;;;;4953974;29;20027;-74
2022/04/14 08:28:55;;;;;;;7.45;2.38;;;16.80;99.90;;;;;;4954151;29;20038;-74
2022/04/14 08:31:22;;;;;;;8.15;2.30;;;17.10;99.90;;;;;;4954445;29;20047;-74
2022/04/14 08:33:51;;;;;;;8.00;2.53;;;17.30;99.90;;;;;;4953584;29;20027;-77
2022/04/14 08:36:17;;;;;;;4.03;2.60;;;17.50;99.90;;;;;;4952865;29;20035;-74
2022/04/14 08:38:45;;;;;;;3.92;1.88;;;17.60;99.90;;;;;;4952845;29;20650;-75
2022/04/14 08:41:13;;;;;;;6.90;3.30;;;17.90;99.90;;;;;;4952492;29;20028;-75
2022/04/14 08:43:47;;;;;;;4.82;2.22;;;17.70;99.90;;;;;;4952503;29;20043;-74
2022/04/14 08:46:16;;;;;;;6.22;2.28;;;17.50;99.90;;;;;;4952575;29;20054;-74
2022/04/14 08:48:44;;;;;;;6.88;2.20;;;17.90;99.90;;;;;;4952492;29;20031;-75
2022/04/14 08:51:14;;;;;;;9.63;2.55;;;18.20;99.90;;;;;;4952543;29;20552;-75
2022/04/14 08:53:41;;;;;;;;;;;18.10;99.90;;;;;;4953931;29;20540;-74
2022/04/14 08:56:07;;;;;;;8.65;2.30;;;17.70;99.90;;;;;;4952803;29;19918;-74
2022/04/14 08:58:35;;;;;;;4.80;2.63;;;17.90;99.90;;;;;;4953560;29;20035;-74
2022/04/14 09:01:01;;;;;;;7.82;3.25;;;17.90;99.90;;;;;;4953706;29;20089;-75
2022/04/14 09:03:28;;;;;;;9.32;3.15;;;17.80;99.90;;;;;;4952642;29;20476;-74
2022/04/14 09:05:55;;;;;;;5.28;2.33;;;18.20;99.90;;;;;;4952098;29;20076;-74
2022/04/14 09:08:25;;;;;;;4.65;1.83;;;18.30;99.90;;;;;;4952320;29;20027;-74
2022/04/14 09:10:51;;;;;;;7.53;2.67;;;18.40;99.90;;;;;;4952713;29;20411;-74
2022/04/14 09:13:18;;;;;;;5.38;1.92;;;18.20;99.90;;;;;;4952241;29;20702;-78
2022/04/14 09:15:44;;;;;;;4.65;2.38;;;18.40;99.90;;;;;;4951697;28;20036;-75
2022/04/14 09:18:10;;;;;;;5.05;1.80;;;18.30;99.90;;;;;;4952067;29;20026;-75
2022/04/14 09:20:38;;;;;;;6.00;2.53;;;18.30;99.90;;;;;;4952120;29;20046;-76
2022/04/14 09:23:26;;;;;;;7.05;2.30;;;18.20;99.90;;;;;;4952403;29;20098;-74
2022/04/14 09:26:06;;;;;;;3.42;2.65;;;18.20;99.90;;;;;;4952104;29;20081;-74
2022/04/14 09:28:32;;;;;;;9.27;3.85;;;18.30;99.90;;;;;;4934942;29;20069;-75
2022/04/14 09:31:02;;;;;;;4.35;2.50;;;18.20;99.90;;;;;;4951683;29;20121;-74
2022/04/14 09:33:29;;;;;;;4.78;1.95;;;18.20;99.90;;;;;;4951839;29;20027;-75
2022/04/14 09:36:13;;;;;;;5.97;2.67;;;18.50;99.90;;;;;;4951857;29;20062;-75
2022/04/14 09:38:51;;;;;;;4.75;2.92;;;18.40;99.90;;;;;;4953111;29;21192;-74
2022/04/14 09:41:33;;;;;;;6.05;3.35;;;18.40;99.90;;;;;;4953157;29;20028;-75
2022/04/14 09:44:01;;;;;;;10.38;3.90;;;18.40;99.90;;;;;;4934548;29;20034;-74
2022/04/14 09:46:28;;;;;;;11.27;6.60;;;18.30;99.90;;;;;;4951698;29;20035;-76
2022/04/14 09:49:07;;;;;;;10.60;4.80;;;18.40;99.90;;;;;;4951754;29;20135;-80
2022/04/14 09:51:35;;;;;;;10.63;4.45;;;18.30;99.90;;;;;;4951554;29;20027;-75
2022/04/14 09:54:06;;;;;;;8.77;3.50;;;18.30;99.90;;;;;;4951305;29;20019;-74
2022/04/14 09:56:39;;;;;;;4.80;2.88;;;18.40;99.90;;;;;;4934818;29;20145;-74
2022/04/14 09:59:08;;;;;;;7.95;3.00;;;18.70;99.90;;;;;;4934952;29;20082;-74
2022/04/14 10:01:35;;;;;;;11.00;2.53;;;18.80;99.90;;;;;;4952720;29;20023;-78
2022/04/14 10:04:01;;;;;;;7.43;2.80;;;18.80;99.90;;;;;;4951454;29;20024;-74
2022/04/14 10:06:27;;;;;;;4.90;2.60;;;18.70;99.90;;;;;;4952550;29;20176;-75
2022/04/14 10:08:52;;;;;;;10.40;2.40;;;18.70;99.90;;;;;;4951257;29;20182;-74
2022/04/14 10:11:27;;;;;;;5.03;2.55;;;18.40;99.90;;;;;;4951475;29;20110;-74
2022/04/14 10:13:53;;;;;;;8.50;3.13;;;18.60;99.90;;;;;;4951577;29;20055;-74
2022/04/14 10:16:23;;;;;;;10.30;2.63;;;18.80;99.90;;;;;;4933865;29;20166;-75
2022/04/14 10:18:49;;;;;;;;;;;18.90;99.90;;;;;;4951865;29;20476;-75
2022/04/14 10:21:15;;;;;;;5.07;2.50;;;19.00;99.90;;;;;;4951225;29;19961;-75
2022/04/14 10:23:41;;;;;;;3.65;2.30;;;19.70;99.90;;;;;;4950845;29;20031;-74
2022/04/14 10:26:08;;;;;;;4.97;2.30;;;19.30;99.90;;;;;;4933884;29;20465;-85
2022/04/14 10:28:35;;;;;;;7.55;2.90;;;19.10;95.10;;;;;;4956050;28;20038;-74
2022/04/14 10:31:01;;;;;;;4.78;2.63;;;19.00;94.40;;;;;;4956602;28;20415;-74
2022/04/14 10:33:31;;;;;;;8.95;2.00;;;19.10;95.80;;;;;;4955603;29;20024;-74
2022/04/14 10:35:56;;;;;;;7.05;2.72;;;19.20;98.00;;;;;;4954977;29;20136;-75
2022/04/14 10:38:32;;;;;;;7.30;2.83;;;19.10;95.90;;;;;;4954899;29;20147;-75
2022/04/14 10:40:58;;;;;;;12.52;3.10;;;19.30;97.60;;;;;;4954447;29;20059;-74
2022/04/14 10:43:25;;;;;;;3.90;2.42;;;19.40;95.60;;;;;;4937777;29;20058;-74
2022/04/14 10:45:58;;;;;;;4.47;2.33;;;19.60;98.20;;;;;;4954669;29;20027;-74
2022/04/14 10:48:32;;;;;;;7.22;2.80;;;20.00;98.40;;;;;;4954689;29;20436;-74
2022/04/14 10:51:16;;;;;;;6.15;2.50;;;19.90;98.60;;;;;;4950629;29;20413;-75
2022/04/14 10:54:03;;;;;;;4.47;2.45;;;19.80;95.00;;;;;;4937071;29;20118;-75
2022/04/14 10:56:38;;;;;;;7.70;3.55;;;19.70;95.20;;;;;;4954924;29;20041;-75
2022/04/14 10:59:16;;;;;;;4.60;2.80;;;19.80;95.70;;;;;;4954624;29;20031;-74
2022/04/14 11:01:51;;;;;;;10.50;3.17;;;19.80;95.50;;;;;;4954537;29;20030;-74
2022/04/14 11:04:25;;;;;;;5.95;2.63;;;20.00;94.20;;;;;;4937289;29;20479;-74
2022/04/14 11:06:54;;;;;;;5.05;2.50;;;20.40;93.70;;;;;;4936922;29;20051;-75
2022/04/14 11:09:58;;;;;;;8.65;2.83;;;20.50;93.70;;;;;;4954079;29;20016;-74
2022/04/14 11:12:34;;;;;;;5.57;2.72;;;20.90;92.60;;;;;;4898369;29;20054;-74
2022/04/14 11:15:07;;;;;;;8.38;3.40;;;20.70;92.60;;;;;;4954415;29;20499;-75
2022/04/14 11:17:37;;;;;;;8.25;3.40;;;20.70;94.20;;;;;;4936688;29;20501;-74
2022/04/14 11:20:15;;;;;;;8.30;4.35;;;20.10;93.40;;;;;;4954096;29;20020;-74
2022/04/14 11:23:24;;;;;;;7.97;3.58;;;20.30;95.30;;;;;;4936899;29;20110;-75
2022/04/14 11:25:52;;;;;;;9.57;3.38;;;20.40;92.20;;;;;;4936514;29;20452;-75
2022/04/14 11:28:24;;;;;;;5.78;3.70;;;20.50;93.80;;;;;;4954053;29;20023;-80
2022/04/14 11:30:53;;;;;;;10.38;3.17;;;20.50;91.40;;;;;;4936445;29;20051;-74
2022/04/14 11:33:31;;;;;;;6.70;3.20;;;20.80;92.00;;;;;;4954223;29;20082;-75
2022/04/14 11:36:09;;;;;;;7.72;3.50;;;21.70;90.30;;;;;;4936556;29;20094;-74
2022/04/14 11:39:05;;;;;;;7.50;3.10;;;20.90;90.60;;;;;;4952903;28;20505;-75
2022/04/14 11:41:44;;;;;;;7.32;3.58;;;21.20;90.40;;;;;;4912457;29;20032;-74
2022/04/14 11:44:17;;;;;;;;;;;21.10;89.10;;;;;;4936843;29;20448;-75
2022/04/14 11:46:51;;;;;;;8.05;3.35;;;21.40;86.50;;;;;;4954062;29;20356;-74
2022/04/14 11:49:19;;;;;;;5.80;3.30;;;21.80;85.80;;;;;;4953775;29;20028;-74
2022/04/14 11:51:53;;;;;;;8.40;3.50;;;21.80;87.30;;;;;;4954059;29;20264;-74
2022/04/14 11:54:39;;;;;;;10.57;2.90;;;22.20;82.60;;;;;;4935965;29;20516;-75
2022/04/14 11:57:10;;;;;;;5.18;2.85;;;22.50;81.90;;;;;;4953123;29;20047;-75
2022/04/14 11:59:47;;;;;;;13.38;3.53;;;22.10;81.70;;;;;;4953494;29;20035;-75
2022/04/14 12:02:18;;;;;;;6.97;2.85;;;22.00;80.90;;;;;;4953300;29;20030;-75
2022/04/14 12:04:49;;;;;;;11.52;3.38;;;22.20;81.70;;;;;;4936173;29;20031;-77
2022/04/14 12:07:16;;;;;;;7.10;3.55;;;22.50;79.40;;;;;;4953766;29;20113;-74
2022/04/14 12:09:43;;;;;;;8.10;3.00;;;23.10;77.70;;;;;;4953047;29;20014;-75
2022/04/14 12:12:19;;;;;;;6.30;3.22;;;23.00;76.20;;;;;;4953203;29;20555;-75
2022/04/14 12:14:50;;;;;;;8.27;3.10;;;23.60;76.10;;;;;;4953370;29;20050;-75
2022/04/14 12:17:21;;;;;;;5.05;3.42;;;24.10;73.90;;;;;;4935754;29;20036;-75
2022/04/14 12:19:52;;;;;;;12.60;4.63;;;24.00;74.40;;;;;;4935674;29;20169;-74
2022/04/14 12:22:18;;;;;;;9.60;3.90;;;24.20;70.20;;;;;;4953141;29;20277;-74
2022/04/14 12:25:05;;;;;;;8.75;3.92;;;24.00;71.80;;;;;;4935694;29;20197;-74
2022/04/14 12:27:38;;;;;;;6.35;3.70;;;23.80;72.10;;;;;;4935374;29;20023;-74
2022/04/14 12:30:06;;;;;;;8.38;4.35;;;24.10;71.90;;;;;;4952636;28;20046;-74
2022/04/14 12:32:32;;;;;;;10.85;4.10;;;24.10;70.00;;;;;;4953069;29;20106;-75
2022/04/14 12:34:58;;;;;;;11.45;3.90;;;23.50;71.00;;;;;;4935260;29;20126;-75
2022/04/14 12:37:34;;;;;;;13.43;4.18;;;23.20;71.00;;;;;;4935507;29;20527;-75
2022/04/14 12:40:10;;;;;;;6.93;4.22;;;23.40;71.50;;;;;;4935153;29;20107;-74
2022/04/14 12:42:36;;;;;;;9.02;3.92;;;23.50;70.20;;;;;;4935569;29;20492;-75
2022/04/14 12:45:13;;;;;;;7.13;3.45;;;23.50;70.70;;;;;;4935393;29;20027;-75
2022/04/14 12:47:44;;;;;;;10.45;3.67;;;24.10;71.80;;;;;;4952438;29;20034;-74
2022/04/14 12:50:10;;;;;;;6.18;4.53;;;24.50;68.00;;;;;;4951815;28;20031;-75
2022/04/14 12:52:36;;;;;;;5.47;3.13;;;24.60;67.80;;;;;;4934473;29;20038;-74